createdAt,value
2022-10-10T00:01:41.178Z,2.27
2022-10-10T00:04:09.192Z,2.30
2022-10-10T00:06:37.055Z,2.33
2022-10-10T00:09:06.422Z,2.37
2022-10-10T00:11:34.632Z,2.40
2022-10-10T00:14:02.580Z,2.40
2022-10-10T00:16:31.808Z,2.30
2022-10-10T00:18:59.757Z,2.10
2022-10-10T00:21:27.613Z,2.20
2022-10-10T00:23:55.453Z,2.10
2022-10-10T00:26:23.380Z,2.27
2022-10-10T00:28:54.428Z,2.73
2022-10-10T00:31:22.697Z,2.57
2022-10-10T00:33:52.107Z,2.33
2022-10-10T00:36:20.693Z,2.43
2022-10-10T00:38:49.053Z,2.53
2022-10-10T00:41:17.124Z,2.07
2022-10-10T00:43:45.002Z,2.13
2022-10-10T00:46:12.889Z,2.40
2022-10-10T00:48:44.626Z,2.50
2022-10-10T00:51:16.012Z,2.50
2022-10-10T00:53:46.194Z,2.47
2022-10-10T00:56:16.486Z,2.67
2022-10-10T00:58:47.860Z,2.90
2022-10-10T01:01:15.884Z,2.53
2022-10-10T01:03:43.813Z,2.27
2022-10-10T01:06:13.812Z,2.57
2022-10-10T01:08:42.505Z,2.60
2022-10-10T01:11:28.110Z,2.53
2022-10-10T01:14:05.426Z,2.70
2022-10-10T01:16:41.428Z,2.30
2022-10-10T01:19:23.745Z,2.80
2022-10-10T01:22:10.433Z,2.60
2022-10-10T01:24:55.827Z,2.80
2022-10-10T01:27:31.844Z,2.30
2022-10-10T01:30:05.354Z,2.37
2022-10-10T01:32:39.901Z,2.60
2022-10-10T01:35:32.634Z,2.67
2022-10-10T01:38:12.689Z,3.13
2022-10-10T01:40:48.601Z,2.50
2022-10-10T01:43:17.986Z,3.00
2022-10-10T01:45:49.007Z,2.93
2022-10-10T01:48:20.581Z,2.53
2022-10-10T01:51:02.065Z,2.97
2022-10-10T01:53:40.465Z,2.70
2022-10-10T01:56:14.960Z,2.33
2022-10-10T01:59:05.504Z,3.00
2022-10-10T02:01:42.253Z,3.30
2022-10-10T02:04:16.070Z,2.77
2022-10-10T02:06:48.556Z,2.97
2022-10-10T02:09:22.557Z,2.90
2022-10-10T02:11:51.236Z,2.60
2022-10-10T02:14:21.556Z,2.60
2022-10-10T02:16:54.186Z,2.40
2022-10-10T02:19:24.147Z,3.00
2022-10-10T02:21:54.372Z,2.70
2022-10-10T02:24:25.509Z,3.43
2022-10-10T02:27:00.345Z,3.87
2022-10-10T02:29:33.262Z,3.17
2022-10-10T02:32:06.600Z,2.77
2022-10-10T02:34:37.980Z,2.83
2022-10-10T02:37:12.655Z,2.53
2022-10-10T02:39:44.243Z,2.40
2022-10-10T02:42:16.138Z,2.67
2022-10-10T02:44:44.801Z,2.63
2022-10-10T02:47:14.334Z,2.97
2022-10-10T02:49:42.630Z,2.50
2022-10-10T02:52:11.473Z,2.93
2022-10-10T02:54:39.316Z,2.90
2022-10-10T02:57:07.451Z,2.77
2022-10-10T02:59:35.481Z,2.67
2022-10-10T03:02:03.269Z,2.50
2022-10-10T03:04:32.718Z,3.20
2022-10-10T03:07:00.633Z,2.80
2022-10-10T03:09:28.699Z,2.67
2022-10-10T03:11:56.786Z,3.57
2022-10-10T03:14:24.672Z,3.00
2022-10-10T03:16:53.129Z,3.00
2022-10-10T03:19:21.281Z,3.30
2022-10-10T03:21:50.527Z,3.00
2022-10-10T03:24:18.458Z,3.37
2022-10-10T03:26:46.417Z,3.17
2022-10-10T03:29:14.332Z,3.13
2022-10-10T03:31:42.159Z,2.77
2022-10-10T03:34:10.242Z,2.70
2022-10-10T03:36:38.209Z,3.03
2022-10-10T03:39:09.363Z,3.13
2022-10-10T03:41:37.663Z,3.03
2022-10-10T03:44:05.611Z,2.53
2022-10-10T03:46:33.473Z,3.20
2022-10-10T03:49:01.332Z,3.30
2022-10-10T03:51:29.176Z,2.80
2022-10-10T03:53:57.145Z,3.10
2022-10-10T03:56:26.586Z,3.50
2022-10-10T03:58:54.497Z,3.23
2022-10-10T04:01:22.488Z,3.37
2022-10-10T04:03:52.289Z,3.40
2022-10-10T04:06:20.484Z,3.10
2022-10-10T04:08:48.704Z,3.00
2022-10-10T04:11:16.870Z,3.40
2022-10-10T04:13:46.315Z,3.57
2022-10-10T04:16:14.586Z,3.47
2022-10-10T04:18:42.534Z,3.40
2022-10-10T04:21:12.074Z,2.80
2022-10-10T04:23:40.831Z,3.70
2022-10-10T04:26:09.596Z,3.07
2022-10-10T04:28:37.526Z,3.10
2022-10-10T04:31:07.281Z,3.37
2022-10-10T04:33:35.307Z,3.30
2022-10-10T04:36:03.866Z,3.40
2022-10-10T04:38:31.990Z,3.67
2022-10-10T04:40:59.826Z,3.60
2022-10-10T04:43:27.699Z,3.37
2022-10-10T04:45:58.390Z,3.57
2022-10-10T04:48:27.934Z,3.80
2022-10-10T04:50:58.023Z,3.83
2022-10-10T04:53:26.223Z,3.20
2022-10-10T04:55:54.355Z,3.50
2022-10-10T04:58:22.336Z,3.73
2022-10-10T05:00:52.829Z,3.67
2022-10-10T05:03:22.506Z,3.30
2022-10-10T05:05:51.904Z,3.50
2022-10-10T05:08:20.629Z,3.53
2022-10-10T05:10:48.954Z,3.70
2022-10-10T05:13:17.615Z,3.60
2022-10-10T05:15:46.323Z,3.43
2022-10-10T05:18:14.475Z,3.97
2022-10-10T05:20:44.014Z,3.50
2022-10-10T05:23:13.632Z,3.90
2022-10-10T05:25:41.583Z,4.17
2022-10-10T05:28:09.466Z,3.70
2022-10-10T05:30:37.405Z,3.73
2022-10-10T05:33:05.699Z,3.93
2022-10-10T05:35:33.636Z,3.73
2022-10-10T05:38:01.644Z,4.00
2022-10-10T05:40:31.041Z,3.93
2022-10-10T05:42:58.914Z,3.73
2022-10-10T05:45:26.910Z,3.80
2022-10-10T05:47:54.867Z,3.67
2022-10-10T05:50:31.422Z,3.87
2022-10-10T05:52:59.681Z,4.03
2022-10-10T05:55:27.527Z,4.33
2022-10-10T05:57:56.778Z,4.60
2022-10-10T06:00:24.929Z,4.10
2022-10-10T06:02:53.018Z,3.97
2022-10-10T06:05:21.267Z,4.70
2022-10-10T06:08:10.697Z,4.27
2022-10-10T06:10:38.552Z,4.30
2022-10-10T06:13:08.017Z,4.00
2022-10-10T06:15:36.775Z,4.13
2022-10-10T06:18:04.784Z,4.07
2022-10-10T06:20:35.918Z,5.90
2022-10-10T06:23:05.777Z,4.67
2022-10-10T06:25:40.498Z,4.40
2022-10-10T06:28:11.528Z,4.60
2022-10-10T06:30:43.011Z,4.73
2022-10-10T06:33:11.234Z,4.50
2022-10-10T06:35:43.676Z,3.90
2022-10-10T06:38:12.272Z,4.40
2022-10-10T06:40:40.717Z,4.33
2022-10-10T06:43:12.260Z,4.33
2022-10-10T06:45:41.948Z,4.73
2022-10-10T06:48:14.053Z,12.47
2022-10-10T06:50:42.132Z,7.67
2022-10-10T06:53:10.205Z,5.70
2022-10-10T06:55:38.035Z,7.57
2022-10-10T06:58:05.960Z,7.03
2022-10-10T07:00:35.110Z,5.30
2022-10-10T07:03:03.045Z,7.07
2022-10-10T07:05:30.860Z,9.90
2022-10-10T07:07:58.688Z,7.40
2022-10-10T07:10:26.811Z,5.73
2022-10-10T07:12:54.778Z,9.27
2022-10-10T07:15:22.667Z,11.57
2022-10-10T07:17:58.236Z,6.20
2022-10-10T07:20:26.081Z,7.60
2022-10-10T07:22:54.222Z,6.27
2022-10-10T07:25:22.367Z,4.90
2022-10-10T07:27:50.501Z,4.80
2022-10-10T07:30:18.675Z,5.13
2022-10-10T07:32:46.644Z,4.20
2022-10-10T07:35:15.992Z,5.40
2022-10-10T07:37:43.831Z,10.53
2022-10-10T07:40:12.326Z,6.40
2022-10-10T07:42:40.287Z,5.07
2022-10-10T07:45:10.180Z,6.13
2022-10-10T07:47:38.025Z,4.83
2022-10-10T07:50:07.782Z,5.00
2022-10-10T07:52:37.045Z,5.73
2022-10-10T07:55:06.325Z,7.13
2022-10-10T07:57:35.126Z,5.57
2022-10-10T08:00:03.976Z,4.10
2022-10-10T08:02:31.816Z,5.23
2022-10-10T08:04:59.649Z,6.47
2022-10-10T08:07:27.723Z,4.87
2022-10-10T08:09:56.916Z,6.10
2022-10-10T08:12:24.929Z,4.97
2022-10-10T08:14:52.990Z,3.87
2022-10-10T08:17:20.865Z,4.23
2022-10-10T08:19:48.773Z,4.53
2022-10-10T08:22:16.656Z,7.30
2022-10-10T08:24:44.518Z,4.23
2022-10-10T08:27:15.548Z,5.47
2022-10-10T08:29:43.616Z,6.93
2022-10-10T08:32:11.759Z,5.47
2022-10-10T08:34:39.637Z,4.17
2022-10-10T08:37:07.559Z,4.70
2022-10-10T08:39:35.363Z,4.40
2022-10-10T08:42:04.348Z,5.10
2022-10-10T08:44:40.672Z,4.97
2022-10-10T08:47:14.697Z,4.97
2022-10-10T08:49:47.419Z,4.63
2022-10-10T08:52:28.994Z,4.50
2022-10-10T08:54:58.781Z,8.80
2022-10-10T08:57:31.230Z,7.57
2022-10-10T09:00:04.263Z,13.77
2022-10-10T09:02:53.640Z,8.50
2022-10-10T09:05:33.698Z,5.10
2022-10-10T09:08:26.250Z,7.53
2022-10-10T09:10:58.026Z,4.47
2022-10-10T09:13:34.694Z,4.47
2022-10-10T09:16:08.976Z,4.20
2022-10-10T09:18:47.112Z,4.33
2022-10-10T09:21:17.971Z,5.37
2022-10-10T09:23:51.881Z,4.53
2022-10-10T09:26:24.538Z,5.17
2022-10-10T09:28:57.618Z,5.47
2022-10-10T09:31:34.885Z,4.53
2022-10-10T09:34:06.393Z,4.70
2022-10-10T09:36:38.136Z,4.40
2022-10-10T09:39:17.206Z,3.90
2022-10-10T09:41:48.787Z,3.63
2022-10-10T09:44:18.546Z,5.13
2022-10-10T09:46:47.851Z,5.83
2022-10-10T09:49:17.657Z,4.77
2022-10-10T09:51:46.110Z,5.73
2022-10-10T09:54:16.634Z,4.97
2022-10-10T09:56:49.281Z,3.70
2022-10-10T09:59:41.455Z,3.33
2022-10-10T10:02:20.275Z,3.50
2022-10-10T10:04:48.822Z,3.30
2022-10-10T10:07:23.076Z,3.30
2022-10-10T10:09:53.547Z,4.07
2022-10-10T10:12:24.622Z,4.20
2022-10-10T10:14:59.575Z,3.70
2022-10-10T10:17:29.236Z,2.97
2022-10-10T10:19:57.072Z,3.20
2022-10-10T10:22:31.109Z,3.30
2022-10-10T10:24:59.325Z,3.40
2022-10-10T10:27:29.826Z,3.30
2022-10-10T10:29:59.919Z,2.93
2022-10-10T10:32:48.782Z,3.17
2022-10-10T10:35:24.323Z,3.40
2022-10-10T10:38:13.223Z,3.03
2022-10-10T10:40:47.615Z,3.20
2022-10-10T10:43:38.614Z,2.93
2022-10-10T10:46:19.475Z,3.20
2022-10-10T10:49:00.368Z,2.80
2022-10-10T10:51:55.365Z,3.33
2022-10-10T10:54:40.421Z,3.40
2022-10-10T10:57:31.849Z,5.97
2022-10-10T11:00:21.848Z,3.70
2022-10-10T11:03:27.946Z,4.57
2022-10-10T11:06:05.906Z,3.60
2022-10-10T11:08:52.872Z,4.47
2022-10-10T11:11:34.910Z,4.17
2022-10-10T11:14:10.517Z,3.80
2022-10-10T11:19:33.778Z,15.60
2022-10-10T11:22:08.569Z,5.97
2022-10-10T11:24:44.825Z,9.00
2022-10-10T11:27:18.838Z,5.57
2022-10-10T11:29:59.067Z,3.80
2022-10-10T11:32:31.879Z,3.27
2022-10-10T11:35:19.382Z,3.07
2022-10-10T11:37:53.505Z,5.43
2022-10-10T11:40:37.046Z,4.53
2022-10-10T11:43:12.684Z,3.40
2022-10-10T11:45:48.784Z,3.70
2022-10-10T11:48:28.928Z,3.23
2022-10-10T11:51:02.814Z,4.27
2022-10-10T11:53:38.895Z,3.63
2022-10-10T11:56:16.980Z,3.10
2022-10-10T11:58:50.886Z,3.30
2022-10-10T12:01:26.779Z,3.27
2022-10-10T12:03:56.145Z,3.10
2022-10-10T12:06:28.662Z,3.07
2022-10-10T12:09:07.805Z,3.27
2022-10-10T12:11:41.900Z,3.10
2022-10-10T12:14:14.851Z,3.00
2022-10-10T12:16:43.079Z,3.30
2022-10-10T12:19:18.626Z,3.63
2022-10-10T12:21:58.948Z,3.40
2022-10-10T12:24:30.472Z,3.13
2022-10-10T12:27:29.710Z,3.40
2022-10-10T12:30:25.047Z,3.55
2022-10-10T12:32:55.378Z,3.58
2022-10-10T12:35:36.078Z,3.27
2022-10-10T12:38:29.424Z,3.63
2022-10-10T12:41:15.978Z,3.43
2022-10-10T12:43:47.283Z,3.60
2022-10-10T12:46:28.957Z,3.63
2022-10-10T12:49:02.868Z,4.30
2022-10-10T12:51:34.324Z,3.85
2022-10-10T12:54:04.729Z,3.13
2022-10-10T12:56:44.037Z,3.77
2022-10-10T12:59:21.268Z,3.67
2022-10-10T13:01:54.163Z,4.03
2022-10-10T13:04:23.885Z,3.80
2022-10-10T13:06:57.215Z,3.40
2022-10-10T13:09:32.353Z,3.50
2022-10-10T13:12:06.224Z,3.60
2022-10-10T13:14:42.027Z,4.00
2022-10-10T13:17:24.621Z,4.07
2022-10-10T13:19:53.542Z,3.70
2022-10-10T13:22:21.959Z,3.70
2022-10-10T13:24:51.463Z,3.40
2022-10-10T13:27:23.991Z,3.30
2022-10-10T13:29:53.279Z,3.57
2022-10-10T13:32:23.783Z,3.60
2022-10-10T13:34:55.047Z,4.40
2022-10-10T13:37:24.003Z,3.73
2022-10-10T13:39:53.482Z,3.30
2022-10-10T13:42:32.440Z,4.30
2022-10-10T13:45:03.063Z,3.78
2022-10-10T13:47:53.821Z,3.80
2022-10-10T13:50:27.813Z,3.80
2022-10-10T13:53:25.446Z,3.57
2022-10-10T13:56:01.192Z,4.55
2022-10-10T13:58:34.269Z,3.67
2022-10-10T14:01:05.112Z,3.57
2022-10-10T14:03:35.001Z,3.77
2022-10-10T14:06:04.530Z,4.00
2022-10-10T14:08:34.770Z,3.75
2022-10-10T14:11:06.299Z,3.50
2022-10-10T14:13:39.490Z,4.03
2022-10-10T14:16:23.159Z,4.30
2022-10-10T14:18:51.299Z,3.80
2022-10-10T14:21:19.218Z,4.37
2022-10-10T14:23:47.087Z,3.33
2022-10-10T14:26:17.247Z,4.70
2022-10-10T14:28:47.201Z,4.07
2022-10-10T14:31:15.334Z,3.50
2022-10-10T14:33:43.400Z,3.30
2022-10-10T14:36:14.098Z,3.87
2022-10-10T14:38:41.908Z,4.03
2022-10-10T14:41:13.067Z,3.70
2022-10-10T14:43:45.564Z,3.30
2022-10-10T14:46:19.348Z,3.30
2022-10-10T14:48:47.655Z,3.90
2022-10-10T14:51:34.287Z,4.00
2022-10-10T14:54:11.884Z,3.83
2022-10-10T14:57:07.496Z,3.43
2022-10-10T14:59:46.096Z,4.07
2022-10-10T15:02:22.114Z,4.33
2022-10-10T15:04:50.304Z,4.30
2022-10-10T15:07:18.478Z,3.73
2022-10-10T15:12:37.469Z,3.53
2022-10-10T15:15:06.601Z,3.80
2022-10-10T15:17:36.042Z,3.70
2022-10-10T15:20:05.027Z,4.10
2022-10-10T15:22:32.917Z,3.60
2022-10-10T15:25:01.208Z,3.77
2022-10-10T15:27:29.227Z,3.90
2022-10-10T15:29:57.183Z,4.13
2022-10-10T15:32:25.054Z,3.73
2022-10-10T15:34:54.835Z,3.43
2022-10-10T15:37:26.028Z,3.70
2022-10-10T15:39:54.051Z,3.47
2022-10-10T15:42:23.391Z,3.87
2022-10-10T15:44:52.428Z,3.60
2022-10-10T15:47:21.135Z,3.70
2022-10-10T15:49:49.233Z,3.53
2022-10-10T15:52:19.315Z,3.47
2022-10-10T15:54:49.873Z,3.90
2022-10-10T15:57:19.143Z,3.47
2022-10-10T15:59:48.025Z,3.60
2022-10-10T16:02:16.278Z,3.27
2022-10-10T16:04:44.431Z,3.30
2022-10-10T16:07:26.867Z,4.00
2022-10-10T16:10:01.228Z,4.17
2022-10-10T16:12:29.179Z,3.43
2022-10-10T16:14:57.284Z,3.80
2022-10-10T16:17:25.473Z,3.87
2022-10-10T16:19:53.347Z,3.43
2022-10-10T16:22:21.464Z,4.07
2022-10-10T16:25:17.428Z,4.10
2022-10-10T16:27:41.317Z,3.90
2022-10-10T16:30:10.518Z,3.73
2022-10-10T16:32:42.286Z,5.43
2022-10-10T16:35:11.465Z,4.10
2022-10-10T16:37:39.571Z,4.63
2022-10-10T16:40:08.526Z,4.27
2022-10-10T16:42:36.691Z,4.10
2022-10-10T16:45:06.909Z,4.67
2022-10-10T16:47:34.880Z,4.40
2022-10-10T16:50:02.960Z,5.00
2022-10-10T16:52:30.852Z,4.93
2022-10-10T16:54:58.732Z,5.57
2022-10-10T16:57:26.656Z,4.93
2022-10-10T16:59:54.517Z,5.40
2022-10-10T17:02:25.051Z,5.27
2022-10-10T17:04:53.807Z,5.63
2022-10-10T17:07:21.725Z,5.70
2022-10-10T17:09:49.699Z,5.50
2022-10-10T17:12:17.655Z,6.63
2022-10-10T17:14:45.527Z,6.13
2022-10-10T17:17:14.047Z,6.07
2022-10-10T17:19:44.323Z,6.13
2022-10-10T17:22:12.186Z,6.97
2022-10-10T17:24:40.024Z,6.20
2022-10-10T17:27:08.063Z,6.90
2022-10-10T17:29:35.923Z,5.67
2022-10-10T17:32:06.565Z,5.83
2022-10-10T17:34:35.336Z,7.60
2022-10-10T17:37:04.951Z,5.27
2022-10-10T17:39:33.053Z,4.83
2022-10-10T17:42:01.605Z,3.20
2022-10-10T17:44:29.529Z,3.10
2022-10-10T17:46:57.652Z,2.30
2022-10-10T17:49:25.702Z,2.40
2022-10-10T17:51:53.535Z,2.73
2022-10-10T17:54:23.294Z,2.80
2022-10-10T17:56:51.243Z,2.70
2022-10-10T17:59:19.097Z,2.87
2022-10-10T18:01:46.971Z,3.30
2022-10-10T18:04:16.752Z,3.40
2022-10-10T18:06:44.577Z,3.07
2022-10-10T18:09:12.617Z,3.40
2022-10-10T18:11:41.960Z,3.40
2022-10-10T18:14:09.939Z,3.00
2022-10-10T18:16:40.356Z,3.50
2022-10-10T18:19:09.356Z,3.07
2022-10-10T18:21:38.035Z,3.50
2022-10-10T18:24:06.560Z,3.30
2022-10-10T18:26:35.122Z,2.63
2022-10-10T18:29:04.543Z,2.77
2022-10-10T18:31:34.748Z,3.20
2022-10-10T18:34:03.920Z,3.13
2022-10-10T18:36:33.772Z,2.80
2022-10-10T18:39:03.174Z,2.43
2022-10-10T18:41:34.334Z,2.87
2022-10-10T18:44:04.756Z,2.30
2022-10-10T18:46:33.581Z,3.13
2022-10-10T18:49:02.386Z,2.23
2022-10-10T18:51:30.832Z,2.80
2022-10-10T18:54:03.496Z,2.67
2022-10-10T18:56:33.360Z,2.70
2022-10-10T18:59:04.828Z,2.60
2022-10-10T19:01:37.261Z,3.50
2022-10-10T19:04:06.113Z,3.23
2022-10-10T19:06:34.107Z,2.80
2022-10-10T19:09:03.339Z,3.30
2022-10-10T19:11:33.530Z,2.93
2022-10-10T19:14:03.553Z,2.97
2022-10-10T19:16:33.894Z,3.37
2022-10-10T19:19:02.948Z,3.23
2022-10-10T19:21:33.269Z,3.00
2022-10-10T19:24:01.766Z,3.83
2022-10-10T19:26:33.398Z,3.53
2022-10-10T19:29:06.374Z,3.77
2022-10-10T19:31:36.599Z,3.70
2022-10-10T19:34:05.285Z,3.80
2022-10-10T19:36:35.059Z,3.53
2022-10-10T19:39:04.392Z,4.10
2022-10-10T19:41:32.457Z,3.80
2022-10-10T19:44:04.728Z,3.90
2022-10-10T19:46:36.135Z,3.83
2022-10-10T19:49:07.137Z,3.97
2022-10-10T19:51:35.183Z,4.60
2022-10-10T19:54:03.043Z,4.80
2022-10-10T19:56:31.030Z,4.33
2022-10-10T19:59:04.399Z,3.83
2022-10-10T20:01:32.743Z,4.33
2022-10-10T20:04:01.103Z,4.77
2022-10-10T20:06:31.742Z,4.23
2022-10-10T20:08:59.679Z,4.30
2022-10-10T20:11:27.725Z,4.53
2022-10-10T20:13:56.117Z,4.60
2022-10-10T20:16:25.045Z,4.00
2022-10-10T20:18:53.149Z,4.43
2022-10-10T20:21:23.484Z,4.03
2022-10-10T20:23:54.599Z,5.33
2022-10-10T20:26:25.827Z,4.20
2022-10-10T20:28:55.602Z,4.27
2022-10-10T20:31:26.377Z,4.37
2022-10-10T20:33:57.097Z,3.53
2022-10-10T20:36:25.774Z,4.47
2022-10-10T20:38:56.421Z,3.40
2022-10-10T20:41:26.324Z,3.50
2022-10-10T20:43:58.272Z,3.87
2022-10-10T20:46:27.808Z,3.90
2022-10-10T20:48:56.144Z,4.20
2022-10-10T20:51:25.579Z,3.60
2022-10-10T20:53:57.329Z,4.53
2022-10-10T20:56:26.643Z,3.80
2022-10-10T20:58:54.710Z,4.07
2022-10-10T21:01:25.475Z,3.90
2022-10-10T21:03:53.936Z,3.83
2022-10-10T21:06:24.142Z,4.03
2022-10-10T21:08:52.376Z,3.93
2022-10-10T21:11:23.361Z,3.47
2022-10-10T21:13:54.225Z,3.60
2022-10-10T21:16:22.580Z,4.50
2022-10-10T21:18:57.453Z,3.90
2022-10-10T21:21:27.048Z,3.50
2022-10-10T21:23:56.428Z,3.73
2022-10-10T21:26:28.079Z,4.03
2022-10-10T21:28:57.522Z,3.60
2022-10-10T21:31:27.158Z,3.43
2022-10-10T21:33:55.365Z,3.83
2022-10-10T21:36:25.426Z,4.27
2022-10-10T21:38:53.308Z,3.43
2022-10-10T21:41:22.491Z,4.13
2022-10-10T21:43:54.831Z,3.70
2022-10-10T21:46:24.537Z,3.60
2022-10-10T21:48:53.226Z,3.50
2022-10-10T21:51:22.159Z,3.73
2022-10-10T21:53:50.313Z,4.13
2022-10-10T21:56:18.912Z,4.10
2022-10-10T21:58:47.075Z,3.40
2022-10-10T22:01:21.729Z,3.50
2022-10-10T22:03:51.568Z,3.50
2022-10-10T22:06:21.651Z,3.60
2022-10-10T22:08:51.889Z,3.53
2022-10-10T22:11:21.820Z,4.07
2022-10-10T22:13:50.556Z,3.83
2022-10-10T22:16:20.228Z,3.57
2022-10-10T22:18:48.251Z,3.90
2022-10-10T22:21:17.807Z,3.60
2022-10-10T22:23:46.515Z,4.10
2022-10-10T22:26:17.019Z,4.17
2022-10-10T22:28:45.335Z,3.70
2022-10-10T22:31:16.429Z,3.90
2022-10-10T22:33:45.771Z,3.40
2022-10-10T22:36:13.938Z,3.53
2022-10-10T22:38:44.024Z,3.77
2022-10-10T22:41:13.067Z,4.53
2022-10-10T22:43:40.934Z,3.93
2022-10-10T22:46:09.661Z,3.80
2022-10-10T22:48:37.796Z,3.80
2022-10-10T22:51:09.460Z,4.40
2022-10-10T22:53:37.400Z,3.60
2022-10-10T22:56:05.934Z,3.50
2022-10-10T22:58:34.167Z,3.20
2022-10-10T23:01:05.498Z,3.73
2022-10-10T23:03:33.432Z,3.70
2022-10-10T23:06:01.474Z,3.83
2022-10-10T23:08:30.872Z,4.23
2022-10-10T23:10:58.813Z,4.63
2022-10-10T23:13:27.045Z,3.83
2022-10-10T23:15:54.933Z,3.47
2022-10-10T23:18:22.796Z,3.13
2022-10-10T23:20:51.584Z,3.50
2022-10-10T23:23:19.709Z,3.50
2022-10-10T23:25:49.162Z,3.87
2022-10-10T23:28:18.251Z,3.20
2022-10-10T23:30:48.258Z,3.60
2022-10-10T23:33:18.026Z,3.43
2022-10-10T23:35:46.166Z,3.57
2022-10-10T23:38:14.240Z,3.50
2022-10-10T23:40:42.419Z,3.20
2022-10-10T23:43:11.668Z,3.13
2022-10-10T23:45:41.599Z,3.77
2022-10-10T23:48:09.677Z,3.90
2022-10-10T23:50:37.704Z,3.13
2022-10-10T23:53:06.006Z,5.17
2022-10-10T23:55:33.946Z,4.10
2022-10-10T23:58:03.223Z,3.27
